Atyray, Kazakhstan

6:14 AM AQTT on February 08, 2016 (GMT +0500)
Atyrau | | Change Station
CLOSE
Current Station
Airport
Location: Atyrau,
Elevation: -72 ft
Nearby Weather Stations

Elev -72 ft 47.12 °N, 51.83 °E | Updated 14 minutes ago

Overcast
Overcast
27 °F
Feels Like 14 °F
N
18
Wind Variable Wind from NNW

Today
High -- | Low -- °F
--% Chance of Precip.
Yesterday
High -- | Low -- °F
Precip. -- in
Pressure 30.36 in
Visibility 3.1 miles
Clouds Overcast 1100 ft
Windchill 14 °F
Dew Point 27 °F
Humidity 100%
Rainfall 0.00 in
Snow Depth Not available.
8:49 AM 6:44 PM
Waning Crescent, 0% visible
METAR UATG 080100Z 34008MPS 5000 BR OVC011 M03/M03 Q1028 R32/CLRD70 NOSIG RMK QFE773/1031
Pressure 30.36 in
Visibility 3.1 miles
Clouds Overcast 1100 ft
Windchill 14 °F
Dew Point 27 °F
Humidity 100%
Rainfall 0.00 in
Snow Depth Not available.
8:49 AM 6:44 PM
Waning Crescent, 0% visible
METAR UATG 080100Z 34008MPS 5000 BR OVC011 M03/M03 Q1028 R32/CLRD70 NOSIG RMK QFE773/1031

10-Day Weather Forecast

Almanac

Astronomy

Feb. 08, 2016 Rise Set
Actual Time
Civil Twilight
Nautical Twilight
Astronomical Twilight
Moon
Length of Visible Light
Length of Day
Tomorrow will be .
, % of the Moon is Illuminated

Today's Extremes

Country Highs Country Lows

Community

WunderPhotos

Upload Photos

1,891,349 photos uploaded!

WunderBlog® & News

Nearby

Air Quality

  Air Quality AQ Index Pollutant
Not available.

Snow Depth

Station Depth Elevation

Earthquake Activity

City Distance Mag. Time & Date
Minimum magnitude displayed is 2.5.

Coastal Water Temperatures

Place Temperature

Stations

Nearby Weather Stations

Station Location Temp. Windchill Dew Point Humidity Wind Precip. Elev Updated Type